sensor_id;sensor_type;location;lat;lon;timestamp;P1;durP1;ratioP1;P2;durP2;ratioP2
84357;SDS011;74548;47.712;9.272;2024-01-15T00:00:37;6.18;;;3.20;;
84357;SDS011;74548;47.712;9.272;2024-01-15T00:03:05;6.63;;;3.50;;
84357;SDS011;74548;47.712;9.272;2024-01-15T00:05:31;6.15;;;2.72;;
84357;SDS011;74548;47.712;9.272;2024-01-15T00:07:58;5.40;;;2.63;;
84357;SDS011;74548;47.712;9.272;2024-01-15T00:10:23;6.47;;;3.23;;
84357;SDS011;74548;47.712;9.272;2024-01-15T00:12:49;6.73;;;2.90;;
84357;SDS011;74548;47.712;9.272;2024-01-15T00:15:14;10.57;;;3.70;;
84357;SDS011;74548;47.712;9.272;2024-01-15T00:17:40;7.15;;;2.90;;
84357;SDS011;74548;47.712;9.272;2024-01-15T00:20:05;5.78;;;2.72;;
84357;SDS011;74548;47.712;9.272;2024-01-15T00:22:31;8.15;;;3.00;;
84357;SDS011;74548;47.712;9.272;2024-01-15T00:24:57;5.53;;;2.60;;
84357;SDS011;74548;47.712;9.272;2024-01-15T00:27:22;7.68;;;2.55;;
84357;SDS011;74548;47.712;9.272;2024-01-15T00:29:48;9.10;;;3.45;;
84357;SDS011;74548;47.712;9.272;2024-01-15T00:32:15;6.40;;;3.28;;
84357;SDS011;74548;47.712;9.272;2024-01-15T00:34:41;7.78;;;3.15;;
84357;SDS011;74548;47.712;9.272;2024-01-15T00:37:06;5.13;;;2.35;;
84357;SDS011;74548;47.712;9.272;2024-01-15T00:39:32;8.10;;;2.70;;
84357;SDS011;74548;47.712;9.272;2024-01-15T00:41:57;7.68;;;2.85;;
84357;SDS011;74548;47.712;9.272;2024-01-15T00:44:23;7.80;;;2.40;;
84357;SDS011;74548;47.712;9.272;2024-01-15T00:46:48;5.93;;;2.60;;
84357;SDS011;74548;47.712;9.272;2024-01-15T00:49:13;6.00;;;2.77;;
84357;SDS011;74548;47.712;9.272;2024-01-15T00:51:39;5.03;;;2.55;;
84357;SDS011;74548;47.712;9.272;2024-01-15T00:54:05;4.75;;;2.50;;
84357;SDS011;74548;47.712;9.272;2024-01-15T00:56:30;6.22;;;2.47;;
84357;SDS011;74548;47.712;9.272;2024-01-15T00:58:56;6.57;;;2.70;;
84357;SDS011;74548;47.712;9.272;2024-01-15T01:01:21;7.13;;;2.75;;
84357;SDS011;74548;47.712;9.272;2024-01-15T01:03:47;6.70;;;2.73;;
84357;SDS011;74548;47.712;9.272;2024-01-15T01:06:13;5.70;;;2.65;;
84357;SDS011;74548;47.712;9.272;2024-01-15T01:08:38;4.70;;;2.28;;
84357;SDS011;74548;47.712;9.272;2024-01-15T01:11:04;5.68;;;2.13;;
84357;SDS011;74548;47.712;9.272;2024-01-15T01:13:29;3.75;;;2.10;;
84357;SDS011;74548;47.712;9.272;2024-01-15T01:15:55;7.13;;;2.77;;
84357;SDS011;74548;47.712;9.272;2024-01-15T01:18:20;6.25;;;2.75;;
84357;SDS011;74548;47.712;9.272;2024-01-15T01:20:45;6.27;;;2.30;;
84357;SDS011;74548;47.712;9.272;2024-01-15T01:23:10;4.80;;;2.40;;
84357;SDS011;74548;47.712;9.272;2024-01-15T01:25:36;4.68;;;2.38;;
84357;SDS011;74548;47.712;9.272;2024-01-15T01:28:01;6.30;;;2.27;;
84357;SDS011;74548;47.712;9.272;2024-01-15T01:30:27;4.93;;;2.17;;
84357;SDS011;74548;47.712;9.272;2024-01-15T01:32:52;4.35;;;2.20;;
84357;SDS011;74548;47.712;9.272;2024-01-15T01:35:17;4.90;;;2.23;;
84357;SDS011;74548;47.712;9.272;2024-01-15T01:37:43;3.75;;;1.90;;
84357;SDS011;74548;47.712;9.272;2024-01-15T01:40:08;6.20;;;2.40;;
84357;SDS011;74548;47.712;9.272;2024-01-15T01:42:34;6.05;;;2.58;;
84357;SDS011;74548;47.712;9.272;2024-01-15T01:44:59;3.67;;;2.17;;
84357;SDS011;74548;47.712;9.272;2024-01-15T01:47:24;5.30;;;2.30;;
84357;SDS011;74548;47.712;9.272;2024-01-15T01:49:51;7.85;;;2.40;;
84357;SDS011;74548;47.712;9.272;2024-01-15T01:52:17;4.30;;;2.10;;
84357;SDS011;74548;47.712;9.272;2024-01-15T01:54:43;4.15;;;2.10;;
84357;SDS011;74548;47.712;9.272;2024-01-15T01:57:09;3.92;;;1.92;;
84357;SDS011;74548;47.712;9.272;2024-01-15T01:59:35;5.53;;;2.20;;
84357;SDS011;74548;47.712;9.272;2024-01-15T02:02:02;4.18;;;1.90;;
84357;SDS011;74548;47.712;9.272;2024-01-15T02:04:28;5.03;;;1.92;;
84357;SDS011;74548;47.712;9.272;2024-01-15T02:06:55;4.25;;;1.70;;
84357;SDS011;74548;47.712;9.272;2024-01-15T02:09:20;5.47;;;2.60;;
84357;SDS011;74548;47.712;9.272;2024-01-15T02:11:46;4.10;;;2.30;;
84357;SDS011;74548;47.712;9.272;2024-01-15T02:14:12;6.78;;;2.25;;
84357;SDS011;74548;47.712;9.272;2024-01-15T02:16:38;6.00;;;2.35;;
84357;SDS011;74548;47.712;9.272;2024-01-15T02:19:03;4.97;;;2.20;;
84357;SDS011;74548;47.712;9.272;2024-01-15T02:21:28;4.50;;;1.97;;
84357;SDS011;74548;47.712;9.272;2024-01-15T02:23:55;4.93;;;2.25;;
84357;SDS011;74548;47.712;9.272;2024-01-15T02:26:20;4.30;;;1.80;;
84357;SDS011;74548;47.712;9.272;2024-01-15T02:28:47;3.60;;;1.58;;
84357;SDS011;74548;47.712;9.272;2024-01-15T02:31:13;4.80;;;2.42;;
84357;SDS011;74548;47.712;9.272;2024-01-15T02:33:38;3.80;;;1.77;;
84357;SDS011;74548;47.712;9.272;2024-01-15T02:36:04;4.72;;;1.83;;
84357;SDS011;74548;47.712;9.272;2024-01-15T02:38:30;3.80;;;1.90;;
84357;SDS011;74548;47.712;9.272;2024-01-15T02:40:55;3.00;;;1.63;;
84357;SDS011;74548;47.712;9.272;2024-01-15T02:43:20;5.13;;;2.07;;
84357;SDS011;74548;47.712;9.272;2024-01-15T02:45:46;3.28;;;1.48;;
84357;SDS011;74548;47.712;9.272;2024-01-15T02:48:12;3.63;;;1.92;;
84357;SDS011;74548;47.712;9.272;2024-01-15T02:50:37;3.70;;;1.75;;
84357;SDS011;74548;47.712;9.272;2024-01-15T02:53:02;5.03;;;1.90;;
84357;SDS011;74548;47.712;9.272;2024-01-15T02:55:28;4.57;;;2.15;;
84357;SDS011;74548;47.712;9.272;2024-01-15T02:57:56;7.38;;;2.25;;
84357;SDS011;74548;47.712;9.272;2024-01-15T03:00:21;5.82;;;2.42;;
84357;SDS011;74548;47.712;9.272;2024-01-15T03:02:47;4.60;;;2.17;;
84357;SDS011;74548;47.712;9.272;2024-01-15T03:05:15;3.33;;;1.63;;
84357;SDS011;74548;47.712;9.272;2024-01-15T03:07:40;4.78;;;2.63;;
84357;SDS011;74548;47.712;9.272;2024-01-15T03:10:06;3.67;;;1.88;;
84357;SDS011;74548;47.712;9.272;2024-01-15T03:12:32;3.83;;;1.88;;
84357;SDS011;74548;47.712;9.272;2024-01-15T03:14:57;2.83;;;1.70;;
84357;SDS011;74548;47.712;9.272;2024-01-15T03:17:22;3.38;;;1.67;;
84357;SDS011;74548;47.712;9.272;2024-01-15T03:19:48;4.43;;;1.80;;
84357;SDS011;74548;47.712;9.272;2024-01-15T03:22:14;4.50;;;1.75;;
84357;SDS011;74548;47.712;9.272;2024-01-15T03:24:40;4.80;;;1.83;;
84357;SDS011;74548;47.712;9.272;2024-01-15T03:27:05;4.77;;;1.77;;
84357;SDS011;74548;47.712;9.272;2024-01-15T03:29:31;3.72;;;1.52;;
84357;SDS011;74548;47.712;9.272;2024-01-15T03:31:56;2.67;;;1.57;;
84357;SDS011;74548;47.712;9.272;2024-01-15T03:34:22;4.45;;;1.80;;
84357;SDS011;74548;47.712;9.272;2024-01-15T03:36:47;3.80;;;1.70;;
84357;SDS011;74548;47.712;9.272;2024-01-15T03:39:12;3.97;;;1.73;;
84357;SDS011;74548;47.712;9.272;2024-01-15T03:41:37;4.47;;;2.40;;
84357;SDS011;74548;47.712;9.272;2024-01-15T03:44:03;3.17;;;1.47;;
84357;SDS011;74548;47.712;9.272;2024-01-15T03:46:28;3.58;;;1.80;;
84357;SDS011;74548;47.712;9.272;2024-01-15T03:48:54;5.00;;;2.47;;
84357;SDS011;74548;47.712;9.272;2024-01-15T03:51:19;3.47;;;1.70;;
84357;SDS011;74548;47.712;9.272;2024-01-15T03:53:45;3.85;;;1.27;;
84357;SDS011;74548;47.712;9.272;2024-01-15T03:56:11;4.20;;;1.83;;
84357;SDS011;74548;47.712;9.272;2024-01-15T03:58:37;3.85;;;1.40;;
84357;SDS011;74548;47.712;9.272;2024-01-15T04:01:02;3.22;;;1.35;;
84357;SDS011;74548;47.712;9.272;2024-01-15T04:03:28;4.40;;;2.03;;
84357;SDS011;74548;47.712;9.272;2024-01-15T04:05:53;1.67;;;1.00;;
84357;SDS011;74548;47.712;9.272;2024-01-15T04:08:18;2.53;;;1.15;;
84357;SDS011;74548;47.712;9.272;2024-01-15T04:10:44;4.05;;;1.38;;
84357;SDS011;74548;47.712;9.272;2024-01-15T04:13:09;3.35;;;1.70;;
84357;SDS011;74548;47.712;9.272;2024-01-15T04:15:34;2.77;;;1.50;;
84357;SDS011;74548;47.712;9.272;2024-01-15T04:18:01;4.38;;;1.95;;
84357;SDS011;74548;47.712;9.272;2024-01-15T04:20:27;4.88;;;1.65;;
84357;SDS011;74548;47.712;9.272;2024-01-15T04:22:53;2.83;;;1.45;;
84357;SDS011;74548;47.712;9.272;2024-01-15T04:25:18;2.58;;;1.40;;
84357;SDS011;74548;47.712;9.272;2024-01-15T04:27:43;4.07;;;1.48;;
84357;SDS011;74548;47.712;9.272;2024-01-15T04:30:09;2.83;;;1.40;;
84357;SDS011;74548;47.712;9.272;2024-01-15T04:32:35;4.10;;;1.50;;
84357;SDS011;74548;47.712;9.272;2024-01-15T04:35:01;3.35;;;1.38;;
84357;SDS011;74548;47.712;9.272;2024-01-15T04:37:26;4.97;;;1.85;;
84357;SDS011;74548;47.712;9.272;2024-01-15T04:39:51;2.95;;;1.50;;
84357;SDS011;74548;47.712;9.272;2024-01-15T04:42:19;2.60;;;1.10;;
84357;SDS011;74548;47.712;9.272;2024-01-15T04:44:45;3.13;;;1.60;;
84357;SDS011;74548;47.712;9.272;2024-01-15T04:47:10;2.70;;;1.37;;
84357;SDS011;74548;47.712;9.272;2024-01-15T04:49:36;5.37;;;1.87;;
84357;SDS011;74548;47.712;9.272;2024-01-15T04:52:01;3.93;;;1.57;;
84357;SDS011;74548;47.712;9.272;2024-01-15T04:54:26;3.45;;;1.40;;
84357;SDS011;74548;47.712;9.272;2024-01-15T04:56:52;4.43;;;1.50;;
84357;SDS011;74548;47.712;9.272;2024-01-15T04:59:17;4.35;;;1.30;;
84357;SDS011;74548;47.712;9.272;2024-01-15T05:01:43;3.45;;;1.52;;
84357;SDS011;74548;47.712;9.272;2024-01-15T05:04:08;3.83;;;1.63;;
84357;SDS011;74548;47.712;9.272;2024-01-15T05:06:33;3.63;;;1.60;;
84357;SDS011;74548;47.712;9.272;2024-01-15T05:08:59;2.03;;;1.13;;
84357;SDS011;74548;47.712;9.272;2024-01-15T05:11:24;2.42;;;1.35;;
84357;SDS011;74548;47.712;9.272;2024-01-15T05:13:49;2.70;;;1.50;;
84357;SDS011;74548;47.712;9.272;2024-01-15T05:16:15;2.58;;;1.77;;
84357;SDS011;74548;47.712;9.272;2024-01-15T05:18:40;3.83;;;1.67;;
84357;SDS011;74548;47.712;9.272;2024-01-15T05:21:05;3.87;;;2.00;;
84357;SDS011;74548;47.712;9.272;2024-01-15T05:23:31;2.75;;;1.08;;
84357;SDS011;74548;47.712;9.272;2024-01-15T05:25:57;2.13;;;1.27;;
84357;SDS011;74548;47.712;9.272;2024-01-15T05:28:22;2.22;;;1.30;;
84357;SDS011;74548;47.712;9.272;2024-01-15T05:30:48;2.92;;;1.10;;
84357;SDS011;74548;47.712;9.272;2024-01-15T05:33:15;2.17;;;1.52;;
84357;SDS011;74548;47.712;9.272;2024-01-15T05:35:40;3.03;;;1.55;;
84357;SDS011;74548;47.712;9.272;2024-01-15T05:38:06;2.60;;;1.27;;
84357;SDS011;74548;47.712;9.272;2024-01-15T05:40:31;2.97;;;1.80;;
84357;SDS011;74548;47.712;9.272;2024-01-15T05:42:56;3.10;;;1.20;;
84357;SDS011;74548;47.712;9.272;2024-01-15T05:45:22;2.83;;;1.10;;
84357;SDS011;74548;47.712;9.272;2024-01-15T05:47:47;2.17;;;1.02;;
84357;SDS011;74548;47.712;9.272;2024-01-15T05:50:12;3.30;;;1.35;;
84357;SDS011;74548;47.712;9.272;2024-01-15T05:52:38;2.15;;;1.15;;
84357;SDS011;74548;47.712;9.272;2024-01-15T05:55:04;3.97;;;1.90;;
84357;SDS011;74548;47.712;9.272;2024-01-15T05:57:29;2.63;;;1.20;;
84357;SDS011;74548;47.712;9.272;2024-01-15T05:59:55;2.65;;;1.25;;
84357;SDS011;74548;47.712;9.272;2024-01-15T06:02:21;4.45;;;1.40;;
84357;SDS011;74548;47.712;9.272;2024-01-15T06:04:46;3.63;;;1.40;;
84357;SDS011;74548;47.712;9.272;2024-01-15T06:07:11;2.03;;;0.93;;
84357;SDS011;74548;47.712;9.272;2024-01-15T06:09:37;3.43;;;1.47;;
84357;SDS011;74548;47.712;9.272;2024-01-15T06:12:03;1.83;;;1.15;;
84357;SDS011;74548;47.712;9.272;2024-01-15T06:14:29;3.45;;;1.00;;
84357;SDS011;74548;47.712;9.272;2024-01-15T06:16:54;3.33;;;1.38;;
84357;SDS011;74548;47.712;9.272;2024-01-15T06:19:19;3.83;;;1.40;;
84357;SDS011;74548;47.712;9.272;2024-01-15T06:21:45;3.00;;;1.27;;
84357;SDS011;74548;47.712;9.272;2024-01-15T06:24:10;3.47;;;1.53;;
84357;SDS011;74548;47.712;9.272;2024-01-15T06:26:35;2.45;;;1.10;;
84357;SDS011;74548;47.712;9.272;2024-01-15T06:29:01;2.85;;;1.50;;
84357;SDS011;74548;47.712;9.272;2024-01-15T06:31:27;3.28;;;1.25;;
84357;SDS011;74548;47.712;9.272;2024-01-15T06:33:53;1.40;;;0.85;;
84357;SDS011;74548;47.712;9.272;2024-01-15T06:36:18;2.70;;;1.27;;
84357;SDS011;74548;47.712;9.272;2024-01-15T06:38:44;2.03;;;1.00;;
84357;SDS011;74548;47.712;9.272;2024-01-15T06:41:09;2.45;;;1.17;;
84357;SDS011;74548;47.712;9.272;2024-01-15T06:43:35;2.90;;;1.00;;
84357;SDS011;74548;47.712;9.272;2024-01-15T06:46:00;1.38;;;1.00;;
84357;SDS011;74548;47.712;9.272;2024-01-15T06:48:25;2.22;;;1.20;;
84357;SDS011;74548;47.712;9.272;2024-01-15T06:50:51;2.13;;;1.25;;
84357;SDS011;74548;47.712;9.272;2024-01-15T06:53:16;4.20;;;1.40;;
84357;SDS011;74548;47.712;9.272;2024-01-15T06:55:41;3.43;;;1.17;;
84357;SDS011;74548;47.712;9.272;2024-01-15T06:58:07;2.57;;;1.27;;
84357;SDS011;74548;47.712;9.272;2024-01-15T07:00:32;5.80;;;1.45;;
84357;SDS011;74548;47.712;9.272;2024-01-15T07:02:58;2.15;;;1.05;;
84357;SDS011;74548;47.712;9.272;2024-01-15T07:05:23;2.45;;;1.20;;
84357;SDS011;74548;47.712;9.272;2024-01-15T07:07:49;3.15;;;1.55;;
84357;SDS011;74548;47.712;9.272;2024-01-15T07:10:14;2.72;;;1.70;;
84357;SDS011;74548;47.712;9.272;2024-01-15T07:12:43;2.60;;;1.33;;
84357;SDS011;74548;47.712;9.272;2024-01-15T07:15:09;1.85;;;1.23;;
84357;SDS011;74548;47.712;9.272;2024-01-15T07:17:34;2.53;;;1.13;;
84357;SDS011;74548;47.712;9.272;2024-01-15T07:20:00;1.77;;;1.30;;
84357;SDS011;74548;47.712;9.272;2024-01-15T07:22:26;2.42;;;1.08;;
84357;SDS011;74548;47.712;9.272;2024-01-15T07:24:52;3.20;;;1.42;;
84357;SDS011;74548;47.712;9.272;2024-01-15T07:27:17;2.13;;;1.00;;
84357;SDS011;74548;47.712;9.272;2024-01-15T07:29:43;2.80;;;1.30;;
84357;SDS011;74548;47.712;9.272;2024-01-15T07:32:08;1.90;;;0.95;;
84357;SDS011;74548;47.712;9.272;2024-01-15T07:34:34;2.70;;;1.48;;
84357;SDS011;74548;47.712;9.272;2024-01-15T07:36:59;2.40;;;1.30;;
84357;SDS011;74548;47.712;9.272;2024-01-15T07:39:25;3.13;;;1.23;;
84357;SDS011;74548;47.712;9.272;2024-01-15T07:41:50;4.53;;;1.45;;
84357;SDS011;74548;47.712;9.272;2024-01-15T07:44:18;1.73;;;1.13;;
84357;SDS011;74548;47.712;9.272;2024-01-15T07:46:44;3.00;;;1.00;;
84357;SDS011;74548;47.712;9.272;2024-01-15T07:49:10;3.17;;;1.40;;
84357;SDS011;74548;47.712;9.272;2024-01-15T07:51:36;2.55;;;0.90;;
84357;SDS011;74548;47.712;9.272;2024-01-15T07:54:01;3.53;;;1.13;;
84357;SDS011;74548;47.712;9.272;2024-01-15T07:56:27;2.40;;;1.30;;
84357;SDS011;74548;47.712;9.272;2024-01-15T07:58:52;1.83;;;1.00;;
84357;SDS011;74548;47.712;9.272;2024-01-15T08:01:18;2.05;;;1.20;;
84357;SDS011;74548;47.712;9.272;2024-01-15T08:03:43;2.85;;;1.27;;
84357;SDS011;74548;47.712;9.272;2024-01-15T08:06:08;1.45;;;0.80;;
84357;SDS011;74548;47.712;9.272;2024-01-15T08:08:34;4.40;;;1.20;;
84357;SDS011;74548;47.712;9.272;2024-01-15T08:11:00;2.33;;;1.48;;
84357;SDS011;74548;47.712;9.272;2024-01-15T08:13:26;2.63;;;1.20;;
84357;SDS011;74548;47.712;9.272;2024-01-15T08:15:52;2.13;;;1.08;;
84357;SDS011;74548;47.712;9.272;2024-01-15T08:18:17;2.30;;;0.93;;
84357;SDS011;74548;47.712;9.272;2024-01-15T08:20:42;2.53;;;1.10;;
84357;SDS011;74548;47.712;9.272;2024-01-15T08:23:08;3.03;;;0.90;;
84357;SDS011;74548;47.712;9.272;2024-01-15T08:25:33;2.05;;;1.13;;
84357;SDS011;74548;47.712;9.272;2024-01-15T08:27:59;2.73;;;1.17;;
84357;SDS011;74548;47.712;9.272;2024-01-15T08:30:24;3.13;;;1.38;;
84357;SDS011;74548;47.712;9.272;2024-01-15T08:32:53;2.47;;;1.33;;
84357;SDS011;74548;47.712;9.272;2024-01-15T08:35:18;2.28;;;1.13;;
84357;SDS011;74548;47.712;9.272;2024-01-15T08:37:47;1.73;;;0.88;;
84357;SDS011;74548;47.712;9.272;2024-01-15T08:40:18;2.00;;;1.10;;
84357;SDS011;74548;47.712;9.272;2024-01-15T08:42:43;2.25;;;1.00;;
84357;SDS011;74548;47.712;9.272;2024-01-15T08:45:09;2.70;;;1.17;;
84357;SDS011;74548;47.712;9.272;2024-01-15T08:47:34;3.28;;;1.38;;
84357;SDS011;74548;47.712;9.272;2024-01-15T08:50:00;1.60;;;1.00;;
84357;SDS011;74548;47.712;9.272;2024-01-15T08:52:26;1.58;;;1.10;;
84357;SDS011;74548;47.712;9.272;2024-01-15T08:54:51;2.05;;;1.10;;
84357;SDS011;74548;47.712;9.272;2024-01-15T08:57:16;3.60;;;1.40;;
84357;SDS011;74548;47.712;9.272;2024-01-15T08:59:42;2.08;;;1.20;;
84357;SDS011;74548;47.712;9.272;2024-01-15T09:02:07;1.33;;;0.90;;
84357;SDS011;74548;47.712;9.272;2024-01-15T09:04:33;1.77;;;1.15;;
84357;SDS011;74548;47.712;9.272;2024-01-15T09:06:58;1.70;;;1.00;;
84357;SDS011;74548;47.712;9.272;2024-01-15T09:09:24;1.77;;;1.10;;
84357;SDS011;74548;47.712;9.272;2024-01-15T09:11:49;1.63;;;0.90;;
84357;SDS011;74548;47.712;9.272;2024-01-15T09:14:16;2.10;;;1.20;;
84357;SDS011;74548;47.712;9.272;2024-01-15T09:16:42;1.38;;;0.85;;
84357;SDS011;74548;47.712;9.272;2024-01-15T09:19:07;6.70;;;2.47;;
84357;SDS011;74548;47.712;9.272;2024-01-15T09:21:32;14.25;;;7.20;;
84357;SDS011;74548;47.712;9.272;2024-01-15T09:23:58;13.38;;;6.65;;
84357;SDS011;74548;47.712;9.272;2024-01-15T09:26:23;11.43;;;5.10;;
84357;SDS011;74548;47.712;9.272;2024-01-15T09:28:49;10.30;;;5.00;;
84357;SDS011;74548;47.712;9.272;2024-01-15T09:31:14;10.73;;;4.88;;
84357;SDS011;74548;47.712;9.272;2024-01-15T09:33:39;9.38;;;4.03;;
84357;SDS011;74548;47.712;9.272;2024-01-15T09:36:05;12.88;;;5.45;;
84357;SDS011;74548;47.712;9.272;2024-01-15T09:38:30;9.18;;;5.20;;
84357;SDS011;74548;47.712;9.272;2024-01-15T09:40:56;9.40;;;4.57;;
84357;SDS011;74548;47.712;9.272;2024-01-15T09:43:22;10.60;;;4.72;;
84357;SDS011;74548;47.712;9.272;2024-01-15T09:45:48;7.75;;;4.45;;
84357;SDS011;74548;47.712;9.272;2024-01-15T09:48:14;6.82;;;4.00;;
84357;SDS011;74548;47.712;9.272;2024-01-15T09:50:40;11.65;;;4.70;;
84357;SDS011;74548;47.712;9.272;2024-01-15T09:53:05;8.13;;;4.40;;
84357;SDS011;74548;47.712;9.272;2024-01-15T09:55:30;10.43;;;4.20;;
84357;SDS011;74548;47.712;9.272;2024-01-15T09:57:57;14.30;;;4.65;;
84357;SDS011;74548;47.712;9.272;2024-01-15T10:00:25;19.95;;;7.00;;
84357;SDS011;74548;47.712;9.272;2024-01-15T10:02:51;20.00;;;6.95;;
84357;SDS011;74548;47.712;9.272;2024-01-15T10:05:17;22.13;;;7.97;;
84357;SDS011;74548;47.712;9.272;2024-01-15T10:07:42;22.55;;;7.38;;
84357;SDS011;74548;47.712;9.272;2024-01-15T10:10:10;19.77;;;6.72;;
84357;SDS011;74548;47.712;9.272;2024-01-15T10:12:36;22.95;;;7.13;;
84357;SDS011;74548;47.712;9.272;2024-01-15T10:15:02;23.02;;;7.85;;
84357;SDS011;74548;47.712;9.272;2024-01-15T10:17:29;18.40;;;7.20;;
84357;SDS011;74548;47.712;9.272;2024-01-15T10:19:57;18.00;;;7.70;;
84357;SDS011;74548;47.712;9.272;2024-01-15T10:22:22;22.08;;;6.75;;
84357;SDS011;74548;47.712;9.272;2024-01-15T10:24:48;18.65;;;6.78;;
84357;SDS011;74548;47.712;9.272;2024-01-15T10:27:14;17.17;;;6.75;;
84357;SDS011;74548;47.712;9.272;2024-01-15T10:29:40;17.05;;;6.53;;
84357;SDS011;74548;47.712;9.272;2024-01-15T10:32:07;16.48;;;6.80;;
84357;SDS011;74548;47.712;9.272;2024-01-15T10:34:39;18.05;;;5.88;;
84357;SDS011;74548;47.712;9.272;2024-01-15T10:39:32;15.95;;;5.95;;
84357;SDS011;74548;47.712;9.272;2024-01-15T10:41:57;19.38;;;7.20;;
84357;SDS011;74548;47.712;9.272;2024-01-15T10:44:22;14.05;;;5.13;;
84357;SDS011;74548;47.712;9.272;2024-01-15T10:46:48;16.20;;;6.60;;
84357;SDS011;74548;47.712;9.272;2024-01-15T10:49:13;15.07;;;5.70;;
84357;SDS011;74548;47.712;9.272;2024-01-15T10:51:39;14.80;;;6.07;;
84357;SDS011;74548;47.712;9.272;2024-01-15T10:54:05;14.38;;;5.47;;
84357;SDS011;74548;47.712;9.272;2024-01-15T10:56:31;12.38;;;5.25;;
84357;SDS011;74548;47.712;9.272;2024-01-15T10:58:58;16.20;;;5.43;;
84357;SDS011;74548;47.712;9.272;2024-01-15T11:01:24;14.55;;;5.15;;
84357;SDS011;74548;47.712;9.272;2024-01-15T11:03:50;12.70;;;5.05;;
84357;SDS011;74548;47.712;9.272;2024-01-15T11:06:16;12.35;;;5.40;;
84357;SDS011;74548;47.712;9.272;2024-01-15T11:08:44;13.85;;;5.05;;
84357;SDS011;74548;47.712;9.272;2024-01-15T11:11:13;18.13;;;5.50;;
84357;SDS011;74548;47.712;9.272;2024-01-15T11:13:39;12.60;;;5.38;;
84357;SDS011;74548;47.712;9.272;2024-01-15T11:16:06;15.05;;;5.40;;
84357;SDS011;74548;47.712;9.272;2024-01-15T11:18:37;10.90;;;4.53;;
84357;SDS011;74548;47.712;9.272;2024-01-15T11:23:42;11.40;;;4.95;;
84357;SDS011;74548;47.712;9.272;2024-01-15T11:29:05;10.57;;;4.50;;
84357;SDS011;74548;47.712;9.272;2024-01-15T11:32:08;13.73;;;5.15;;
84357;SDS011;74548;47.712;9.272;2024-01-15T11:37:22;10.05;;;4.28;;
84357;SDS011;74548;47.712;9.272;2024-01-15T11:39:49;12.73;;;4.43;;
84357;SDS011;74548;47.712;9.272;2024-01-15T11:42:16;12.88;;;4.35;;
84357;SDS011;74548;47.712;9.272;2024-01-15T11:44:43;9.75;;;4.30;;
84357;SDS011;74548;47.712;9.272;2024-01-15T11:47:10;12.60;;;3.97;;
84357;SDS011;74548;47.712;9.272;2024-01-15T11:52:06;10.27;;;3.75;;
84357;SDS011;74548;47.712;9.272;2024-01-15T11:54:33;9.65;;;3.65;;
84357;SDS011;74548;47.712;9.272;2024-01-15T11:57:04;8.57;;;3.40;;
84357;SDS011;74548;47.712;9.272;2024-01-15T11:59:40;12.30;;;3.95;;
84357;SDS011;74548;47.712;9.272;2024-01-15T12:02:06;9.32;;;3.15;;
84357;SDS011;74548;47.712;9.272;2024-01-15T12:04:32;8.43;;;3.92;;
84357;SDS011;74548;47.712;9.272;2024-01-15T12:06:57;8.97;;;4.17;;
84357;SDS011;74548;47.712;9.272;2024-01-15T12:09:22;12.20;;;4.00;;
84357;SDS011;74548;47.712;9.272;2024-01-15T12:11:51;7.90;;;3.20;;
84357;SDS011;74548;47.712;9.272;2024-01-15T12:14:24;12.93;;;4.68;;
84357;SDS011;74548;47.712;9.272;2024-01-15T12:16:49;9.18;;;3.40;;
84357;SDS011;74548;47.712;9.272;2024-01-15T12:19:15;8.60;;;3.38;;
84357;SDS011;74548;47.712;9.272;2024-01-15T12:21:41;7.88;;;3.05;;
84357;SDS011;74548;47.712;9.272;2024-01-15T12:24:07;9.02;;;3.67;;
84357;SDS011;74548;47.712;9.272;2024-01-15T12:26:32;8.63;;;3.42;;
84357;SDS011;74548;47.712;9.272;2024-01-15T12:29:01;10.45;;;3.80;;
84357;SDS011;74548;47.712;9.272;2024-01-15T12:31:27;8.40;;;2.88;;
84357;SDS011;74548;47.712;9.272;2024-01-15T12:33:52;9.43;;;2.90;;
84357;SDS011;74548;47.712;9.272;2024-01-15T12:36:21;6.75;;;3.17;;
84357;SDS011;74548;47.712;9.272;2024-01-15T12:38:47;7.82;;;3.30;;
84357;SDS011;74548;47.712;9.272;2024-01-15T12:41:12;9.82;;;2.97;;
84357;SDS011;74548;47.712;9.272;2024-01-15T12:43:37;6.20;;;2.58;;
84357;SDS011;74548;47.712;9.272;2024-01-15T12:46:03;6.88;;;2.55;;
84357;SDS011;74548;47.712;9.272;2024-01-15T12:48:28;7.38;;;3.25;;
84357;SDS011;74548;47.712;9.272;2024-01-15T12:50:55;7.85;;;3.95;;
84357;SDS011;74548;47.712;9.272;2024-01-15T12:53:20;5.72;;;3.08;;
84357;SDS011;74548;47.712;9.272;2024-01-15T12:55:46;9.13;;;3.75;;
84357;SDS011;74548;47.712;9.272;2024-01-15T12:58:11;6.32;;;2.83;;
84357;SDS011;74548;47.712;9.272;2024-01-15T13:00:37;8.85;;;3.63;;
84357;SDS011;74548;47.712;9.272;2024-01-15T13:03:02;5.25;;;2.17;;
84357;SDS011;74548;47.712;9.272;2024-01-15T13:05:28;9.20;;;3.05;;
84357;SDS011;74548;47.712;9.272;2024-01-15T13:07:56;5.28;;;2.65;;
84357;SDS011;74548;47.712;9.272;2024-01-15T13:10:21;4.90;;;2.38;;
84357;SDS011;74548;47.712;9.272;2024-01-15T13:12:47;7.80;;;3.73;;
84357;SDS011;74548;47.712;9.272;2024-01-15T13:15:12;7.43;;;3.13;;
84357;SDS011;74548;47.712;9.272;2024-01-15T13:17:38;6.60;;;2.72;;
84357;SDS011;74548;47.712;9.272;2024-01-15T13:20:05;6.45;;;2.80;;
84357;SDS011;74548;47.712;9.272;2024-01-15T13:22:31;7.10;;;2.95;;
84357;SDS011;74548;47.712;9.272;2024-01-15T13:24:57;5.45;;;2.40;;
84357;SDS011;74548;47.712;9.272;2024-01-15T13:27:22;6.35;;;2.85;;
84357;SDS011;74548;47.712;9.272;2024-01-15T13:29:48;6.03;;;3.05;;
84357;SDS011;74548;47.712;9.272;2024-01-15T13:32:13;6.57;;;2.83;;
84357;SDS011;74548;47.712;9.272;2024-01-15T13:34:46;5.13;;;2.30;;
84357;SDS011;74548;47.712;9.272;2024-01-15T13:37:11;6.77;;;2.67;;
84357;SDS011;74548;47.712;9.272;2024-01-15T13:39:37;4.47;;;2.00;;
84357;SDS011;74548;47.712;9.272;2024-01-15T13:42:02;6.47;;;2.70;;
84357;SDS011;74548;47.712;9.272;2024-01-15T13:44:27;5.78;;;2.08;;
84357;SDS011;74548;47.712;9.272;2024-01-15T13:46:53;4.53;;;2.30;;
84357;SDS011;74548;47.712;9.272;2024-01-15T13:49:18;4.82;;;2.45;;
84357;SDS011;74548;47.712;9.272;2024-01-15T13:51:43;4.25;;;2.15;;
84357;SDS011;74548;47.712;9.272;2024-01-15T13:54:09;4.80;;;2.33;;
84357;SDS011;74548;47.712;9.272;2024-01-15T13:56:34;4.10;;;2.22;;
84357;SDS011;74548;47.712;9.272;2024-01-15T13:59:00;5.45;;;2.63;;
84357;SDS011;74548;47.712;9.272;2024-01-15T14:01:27;3.78;;;1.95;;
84357;SDS011;74548;47.712;9.272;2024-01-15T14:03:53;6.97;;;2.30;;
84357;SDS011;74548;47.712;9.272;2024-01-15T14:06:19;4.22;;;2.05;;
84357;SDS011;74548;47.712;9.272;2024-01-15T14:08:45;4.55;;;2.22;;
84357;SDS011;74548;47.712;9.272;2024-01-15T14:11:10;6.03;;;1.80;;
84357;SDS011;74548;47.712;9.272;2024-01-15T14:13:35;4.68;;;2.28;;
84357;SDS011;74548;47.712;9.272;2024-01-15T14:16:01;5.10;;;2.10;;
84357;SDS011;74548;47.712;9.272;2024-01-15T14:18:26;5.47;;;2.13;;
84357;SDS011;74548;47.712;9.272;2024-01-15T14:20:52;5.25;;;2.35;;
84357;SDS011;74548;47.712;9.272;2024-01-15T14:23:18;4.90;;;2.00;;
84357;SDS011;74548;47.712;9.272;2024-01-15T14:25:44;6.13;;;2.10;;
84357;SDS011;74548;47.712;9.272;2024-01-15T14:28:10;4.88;;;2.22;;
84357;SDS011;74548;47.712;9.272;2024-01-15T14:30:35;4.10;;;1.88;;
84357;SDS011;74548;47.712;9.272;2024-01-15T14:33:01;3.45;;;1.92;;
84357;SDS011;74548;47.712;9.272;2024-01-15T14:35:26;4.55;;;2.10;;
84357;SDS011;74548;47.712;9.272;2024-01-15T14:37:51;4.87;;;2.33;;
84357;SDS011;74548;47.712;9.272;2024-01-15T14:40:17;4.43;;;1.75;;
84357;SDS011;74548;47.712;9.272;2024-01-15T14:42:43;4.47;;;1.42;;
84357;SDS011;74548;47.712;9.272;2024-01-15T14:45:09;4.90;;;2.25;;
84357;SDS011;74548;47.712;9.272;2024-01-15T14:47:37;3.63;;;1.85;;
84357;SDS011;74548;47.712;9.272;2024-01-15T14:50:03;3.58;;;1.77;;